createdAt,value
2022-11-24T00:01:32.841Z,133.93
2022-11-24T00:04:04.971Z,245.40
2022-11-24T00:06:37.104Z,283.13
2022-11-24T00:09:08.364Z,311.07
2022-11-24T00:11:39.671Z,245.10
2022-11-24T00:14:13.112Z,257.37
2022-11-24T00:16:43.948Z,242.40
2022-11-24T00:19:19.420Z,322.13
2022-11-24T00:21:50.253Z,244.13
2022-11-24T00:24:21.663Z,310.83
2022-11-24T00:26:52.281Z,327.27
2022-11-24T00:29:25.272Z,435.87
2022-11-24T00:31:55.369Z,338.73
2022-11-24T00:34:26.204Z,458.53
2022-11-24T00:36:57.169Z,375.87
2022-11-24T00:39:27.811Z,371.57
2022-11-24T00:41:59.211Z,404.53
2022-11-24T00:44:37.904Z,447.00
2022-11-24T00:47:08.119Z,459.07
2022-11-24T00:49:38.869Z,354.30
2022-11-24T00:52:08.900Z,390.40
2022-11-24T00:54:41.022Z,566.60
2022-11-24T00:57:11.146Z,406.90
2022-11-24T00:59:44.252Z,355.93
2022-11-24T01:02:14.491Z,367.37
2022-11-24T01:04:45.035Z,440.90
2022-11-24T01:07:15.658Z,370.17
2022-11-24T01:09:46.470Z,586.13
2022-11-24T01:12:18.882Z,363.23
2022-11-24T01:14:52.241Z,290.20
2022-11-24T01:17:22.530Z,377.97
2022-11-24T01:19:53.134Z,445.97
2022-11-24T01:22:25.022Z,404.37
2022-11-24T01:24:55.493Z,206.50
2022-11-24T01:27:29.048Z,294.53
2022-11-24T01:30:02.298Z,303.70
2022-11-24T01:32:33.260Z,301.57
2022-11-24T01:35:03.804Z,318.77
2022-11-24T01:37:34.241Z,257.97
2022-11-24T01:40:04.709Z,315.23
2022-11-24T01:42:50.454Z,491.67
2022-11-24T01:45:55.118Z,343.43
2022-11-24T01:48:34.288Z,272.30
2022-11-24T01:51:11.262Z,342.63
2022-11-24T01:53:43.819Z,151.10
2022-11-24T01:56:16.167Z,450.37
2022-11-24T01:58:48.960Z,352.27
2022-11-24T02:01:22.039Z,481.30
2022-11-24T02:03:53.445Z,356.77
2022-11-24T02:06:28.713Z,338.87
2022-11-24T02:09:02.888Z,338.80
2022-11-24T02:11:38.704Z,294.60
2022-11-24T02:14:11.291Z,405.53
2022-11-24T02:16:47.032Z,552.67
2022-11-24T02:19:25.005Z,401.93
2022-11-24T02:21:55.881Z,211.57
2022-11-24T02:24:34.765Z,316.97
2022-11-24T02:27:08.665Z,376.13
2022-11-24T02:29:39.138Z,297.70
2022-11-24T02:32:12.904Z,229.60
2022-11-24T02:34:43.675Z,334.40
2022-11-24T02:37:14.157Z,297.50
2022-11-24T02:39:44.299Z,440.73
2022-11-24T02:42:17.307Z,322.87
2022-11-24T02:44:55.182Z,293.00
2022-11-24T02:47:29.876Z,240.60
2022-11-24T02:49:59.936Z,250.80
2022-11-24T02:52:30.689Z,300.23
2022-11-24T02:55:01.351Z,185.37
2022-11-24T02:57:34.587Z,437.43
2022-11-24T03:00:04.675Z,360.27
2022-11-24T03:02:35.584Z,253.03
2022-11-24T03:05:05.703Z,263.73
2022-11-24T03:07:36.327Z,356.30
2022-11-24T03:10:07.135Z,334.67
2022-11-24T03:12:40.180Z,330.80
2022-11-24T03:15:11.362Z,129.50
2022-11-24T03:17:41.681Z,310.50
2022-11-24T03:20:14.156Z,153.80
2022-11-24T03:22:44.535Z,324.53
2022-11-24T03:25:14.527Z,260.03
2022-11-24T03:27:47.760Z,424.73
2022-11-24T03:30:18.104Z,340.80
2022-11-24T03:32:48.681Z,444.20
2022-11-24T03:35:18.853Z,223.80
2022-11-24T03:37:49.345Z,371.40
2022-11-24T03:40:20.755Z,345.00
2022-11-24T03:42:53.930Z,163.97
2022-11-24T03:45:46.065Z,266.97
2022-11-24T03:48:14.514Z,407.20
2022-11-24T03:50:44.598Z,262.87
2022-11-24T03:53:15.061Z,288.10
2022-11-24T03:55:46.402Z,298.90
2022-11-24T03:58:19.518Z,343.70
2022-11-24T04:00:51.620Z,358.17
2022-11-24T04:03:22.625Z,354.43
2022-11-24T04:05:52.999Z,433.87
2022-11-24T04:08:23.975Z,314.17
2022-11-24T04:10:55.281Z,248.73
2022-11-24T04:13:26.577Z,216.67
2022-11-24T04:15:57.222Z,286.27
2022-11-24T04:18:27.647Z,266.40
2022-11-24T04:20:57.633Z,213.83
2022-11-24T04:23:28.700Z,288.27
2022-11-24T04:25:58.596Z,241.63
2022-11-24T04:28:31.881Z,275.37
2022-11-24T04:31:05.015Z,258.80
2022-11-24T04:33:35.491Z,252.27
2022-11-24T04:36:05.729Z,146.00
2022-11-24T04:39:24.086Z,291.33
2022-11-24T04:41:26.138Z,338.20
2022-11-24T04:43:59.112Z,132.10
2022-11-24T04:46:29.270Z,246.37
2022-11-24T04:48:59.777Z,386.03
2022-11-24T04:51:29.887Z,231.30
2022-11-24T04:54:00.369Z,380.93
2022-11-24T04:56:30.379Z,464.50
2022-11-24T04:59:07.989Z,181.27
2022-11-24T05:01:38.638Z,258.60
2022-11-24T05:04:09.173Z,251.70
2022-11-24T05:06:39.239Z,238.57
2022-11-24T05:09:10.513Z,252.53
2022-11-24T05:11:40.662Z,251.97
2022-11-24T05:14:13.585Z,214.00
2022-11-24T05:16:43.629Z,287.00
2022-11-24T05:19:14.210Z,392.27
2022-11-24T05:21:44.372Z,348.37
2022-11-24T05:24:14.877Z,329.33
2022-11-24T05:26:44.851Z,374.57
2022-11-24T05:29:17.952Z,376.73
2022-11-24T05:31:47.942Z,319.23
2022-11-24T05:34:18.846Z,333.10
2022-11-24T05:37:02.944Z,311.57
2022-11-24T05:39:34.469Z,178.37
2022-11-24T05:42:26.388Z,293.90
2022-11-24T05:44:59.761Z,457.13
2022-11-24T05:47:29.858Z,327.00
2022-11-24T05:50:00.344Z,309.67
2022-11-24T05:52:30.513Z,528.33
2022-11-24T05:55:00.888Z,263.17
2022-11-24T05:57:31.055Z,418.67
2022-11-24T06:00:04.234Z,355.33
2022-11-24T06:02:34.264Z,184.57
2022-11-24T06:05:04.815Z,241.30
2022-11-24T06:07:34.823Z,286.43
2022-11-24T06:10:05.571Z,102.23
2022-11-24T06:12:35.811Z,281.10
2022-11-24T06:15:09.966Z,224.33
2022-11-24T06:17:41.292Z,236.90
2022-11-24T06:20:12.981Z,149.60
2022-11-24T06:22:42.976Z,140.00
2022-11-24T06:25:13.318Z,168.23
2022-11-24T06:27:43.269Z,91.83
2022-11-24T06:30:17.934Z,195.50
2022-11-24T06:32:49.876Z,337.03
2022-11-24T06:35:20.779Z,247.53
2022-11-24T06:37:51.359Z,199.40
2022-11-24T06:40:22.311Z,388.53
2022-11-24T06:42:53.913Z,93.70
2022-11-24T06:45:27.160Z,192.47
2022-11-24T06:47:58.010Z,197.47
2022-11-24T06:50:33.464Z,142.57
2022-11-24T06:53:04.209Z,89.40
2022-11-24T06:55:35.301Z,190.60
2022-11-24T06:58:05.281Z,81.47
2022-11-24T07:00:41.317Z,103.97
2022-11-24T07:03:19.530Z,142.67
2022-11-24T07:05:50.068Z,63.13
2022-11-24T07:08:20.081Z,210.77
2022-11-24T07:10:50.378Z,190.33
2022-11-24T07:13:20.493Z,134.70
2022-11-24T07:15:53.507Z,161.53
2022-11-24T07:18:23.527Z,105.87
2022-11-24T07:20:53.972Z,181.07
2022-11-24T07:23:23.929Z,214.38
2022-11-24T07:25:54.386Z,89.07
2022-11-24T07:28:24.507Z,178.20
2022-11-24T07:30:57.558Z,121.93
2022-11-24T07:33:27.853Z,98.87
2022-11-24T07:36:02.365Z,163.23
2022-11-24T07:38:33.336Z,87.23
2022-11-24T07:41:05.002Z,109.50
2022-11-24T07:43:36.794Z,101.23
2022-11-24T07:46:13.337Z,102.73
2022-11-24T07:48:44.292Z,69.07
2022-11-24T07:51:15.680Z,63.37
2022-11-24T07:53:46.323Z,81.87
2022-11-24T07:56:16.915Z,63.67
2022-11-24T07:58:51.348Z,91.47
2022-11-24T08:01:25.844Z,102.23
2022-11-24T08:03:56.078Z,83.93
2022-11-24T08:06:32.247Z,75.63
2022-11-24T08:09:08.595Z,123.50
2022-11-24T08:11:42.076Z,72.13
2022-11-24T08:14:11.970Z,61.27
2022-11-24T08:16:44.864Z,56.10
2022-11-24T08:19:17.660Z,74.57
2022-11-24T08:21:47.930Z,55.17
2022-11-24T08:24:18.117Z,50.73
2022-11-24T08:26:48.405Z,61.13
2022-11-24T08:29:18.509Z,65.03
2022-11-24T08:31:51.472Z,70.00
2022-11-24T08:34:21.481Z,47.77
2022-11-24T08:36:51.755Z,65.97
2022-11-24T08:39:21.845Z,55.77
2022-11-24T08:41:52.426Z,55.57
2022-11-24T08:44:22.438Z,70.20
2022-11-24T08:46:56.842Z,65.80
2022-11-24T08:49:26.861Z,67.00
2022-11-24T08:51:59.883Z,66.83
2022-11-24T08:54:30.007Z,60.87
2022-11-24T08:57:00.626Z,64.60
2022-11-24T08:59:30.975Z,65.07
2022-11-24T09:02:04.346Z,62.93
2022-11-24T09:04:34.880Z,57.57
2022-11-24T09:07:05.503Z,61.00
2022-11-24T09:09:35.629Z,60.13
2022-11-24T09:12:11.378Z,59.07
2022-11-24T09:14:44.451Z,53.60
2022-11-24T09:17:17.448Z,52.43
2022-11-24T09:19:47.447Z,54.50
2022-11-24T09:22:21.049Z,52.07
2022-11-24T09:24:51.037Z,54.50
2022-11-24T09:27:21.395Z,49.00
2022-11-24T09:29:51.528Z,51.00
2022-11-24T09:32:24.378Z,46.73
2022-11-24T09:34:54.688Z,47.73
2022-11-24T09:37:29.619Z,51.20
2022-11-24T09:40:02.642Z,48.73
2022-11-24T09:42:52.095Z,58.07
2022-11-24T09:48:42.279Z,47.00
2022-11-24T09:51:16.351Z,51.73
2022-11-24T09:53:51.406Z,46.60
2022-11-24T09:56:25.688Z,51.70
2022-11-24T09:59:02.750Z,50.10
2022-11-24T10:01:35.747Z,46.53
2022-11-24T10:04:19.211Z,46.00
2022-11-24T10:06:54.926Z,45.53
2022-11-24T10:09:41.322Z,49.07
2022-11-24T10:12:25.172Z,46.13
2022-11-24T10:15:07.302Z,47.80
2022-11-24T10:17:50.566Z,54.37
2022-11-24T10:20:31.173Z,49.30
2022-11-24T10:23:21.347Z,47.53
2022-11-24T10:25:59.385Z,52.47
2022-11-24T10:28:35.874Z,49.70
2022-11-24T10:31:22.917Z,46.97
2022-11-24T10:33:53.374Z,48.93
2022-11-24T10:36:32.473Z,46.90
2022-11-24T10:39:08.921Z,49.77
2022-11-24T10:41:46.575Z,45.60
2022-11-24T10:44:17.350Z,44.47
2022-11-24T10:46:47.964Z,45.83
2022-11-24T10:49:22.074Z,44.37
2022-11-24T10:52:09.329Z,42.17
2022-11-24T10:54:41.423Z,36.50
2022-11-24T10:57:12.009Z,39.60
2022-11-24T10:59:42.347Z,38.60
2022-11-24T11:02:32.431Z,37.67
2022-11-24T11:05:37.986Z,37.53
2022-11-24T11:08:22.904Z,38.17
2022-11-24T11:10:54.857Z,42.37
2022-11-24T11:13:27.246Z,37.17
2022-11-24T11:15:59.881Z,36.37
2022-11-24T11:18:35.232Z,38.97
2022-11-24T11:21:06.463Z,36.67
2022-11-24T11:23:41.057Z,38.47
2022-11-24T11:26:22.613Z,40.53
2022-11-24T11:34:54.866Z,39.33
2022-11-24T11:37:28.115Z,36.13
2022-11-24T11:40:02.117Z,46.77
2022-11-24T11:45:37.077Z,37.07
2022-11-24T11:48:28.132Z,41.00
2022-11-24T11:51:22.831Z,41.30
2022-11-24T11:54:03.500Z,41.63
2022-11-24T11:56:44.308Z,37.67
2022-11-24T11:59:35.447Z,38.03
2022-11-24T12:02:30.345Z,38.00
2022-11-24T12:05:03.906Z,38.80
2022-11-24T12:08:10.086Z,37.63
2022-11-24T12:10:48.414Z,39.93
2022-11-24T12:13:43.695Z,42.53
2022-11-24T12:16:27.731Z,36.77
2022-11-24T12:19:07.830Z,36.03
2022-11-24T12:21:45.824Z,36.07
2022-11-24T12:24:24.504Z,37.67
2022-11-24T12:26:58.596Z,35.47
2022-11-24T12:29:52.833Z,37.30
2022-11-24T12:32:38.876Z,38.07
2022-11-24T12:35:22.864Z,35.00
2022-11-24T12:38:02.495Z,37.40
2022-11-24T12:40:47.088Z,40.97
2022-11-24T12:43:23.668Z,37.73
2022-11-24T12:46:02.063Z,37.90
2022-11-24T12:48:44.924Z,37.57
2022-11-24T12:51:21.017Z,37.00
2022-11-24T12:53:53.706Z,36.57
2022-11-24T12:56:32.126Z,39.60
2022-11-24T12:59:15.331Z,37.00
2022-11-24T13:01:56.180Z,36.53
2022-11-24T13:04:37.992Z,40.53
2022-11-24T13:07:14.073Z,41.27
2022-11-24T13:10:14.197Z,40.37
2022-11-24T13:12:56.768Z,36.27
2022-11-24T13:15:45.059Z,39.30
2022-11-24T13:18:55.854Z,37.27
2022-11-24T13:21:35.836Z,40.50
2022-11-24T13:24:08.961Z,37.20
2022-11-24T13:26:48.446Z,39.67
2022-11-24T13:29:42.950Z,44.43
2022-11-24T13:32:45.604Z,37.23
2022-11-24T13:35:19.440Z,40.37
2022-11-24T13:37:55.056Z,38.73
2022-11-24T13:40:59.724Z,37.23
2022-11-24T13:43:34.151Z,39.87
2022-11-24T13:46:06.032Z,38.63
2022-11-24T13:49:03.204Z,44.30
2022-11-24T13:51:36.146Z,39.80
2022-11-24T13:54:06.590Z,42.77
2022-11-24T13:56:36.982Z,38.63
2022-11-24T13:59:20.274Z,39.40
2022-11-24T14:01:59.399Z,40.30
2022-11-24T14:04:32.537Z,37.23
2022-11-24T14:07:09.764Z,36.90
2022-11-24T14:09:44.969Z,37.17
2022-11-24T14:12:20.335Z,34.70
2022-11-24T14:14:51.966Z,37.20
2022-11-24T14:17:24.324Z,40.23
2022-11-24T14:19:55.972Z,38.03
2022-11-24T14:22:34.663Z,43.23
2022-11-24T14:25:06.014Z,49.27
2022-11-24T14:27:38.875Z,40.30
2022-11-24T14:30:23.267Z,43.93
2022-11-24T14:32:57.858Z,41.50
2022-11-24T14:35:29.907Z,43.20
2022-11-24T14:38:04.824Z,41.93
2022-11-24T14:40:43.212Z,41.03
2022-11-24T14:43:23.703Z,39.57
2022-11-24T14:45:56.943Z,43.93
2022-11-24T14:48:29.961Z,43.83
2022-11-24T14:51:10.434Z,46.40
2022-11-24T14:53:48.273Z,42.03
2022-11-24T14:56:30.013Z,49.13
2022-11-24T14:59:01.519Z,48.37
2022-11-24T15:01:36.225Z,48.80
2022-11-24T15:05:00.719Z,47.60
2022-11-24T15:07:22.006Z,47.27
2022-11-24T15:09:58.360Z,46.57
2022-11-24T15:12:34.353Z,49.07
2022-11-24T15:15:07.770Z,47.40
2022-11-24T15:17:38.268Z,52.57
2022-11-24T15:20:14.171Z,55.53
2022-11-24T15:22:46.601Z,50.83
2022-11-24T15:25:34.561Z,54.43
2022-11-24T15:28:04.563Z,50.77
2022-11-24T15:30:38.118Z,55.53
2022-11-24T15:33:17.463Z,55.20
2022-11-24T15:35:48.730Z,65.17
2022-11-24T15:38:19.424Z,58.13
2022-11-24T15:40:54.874Z,52.70
2022-11-24T15:43:31.892Z,50.63
2022-11-24T15:46:04.038Z,56.60
2022-11-24T15:48:34.487Z,54.57
2022-11-24T15:51:07.198Z,60.73
2022-11-24T15:53:43.013Z,57.43
2022-11-24T15:56:20.788Z,55.77
2022-11-24T15:58:51.437Z,64.90
2022-11-24T16:01:25.003Z,55.10
2022-11-24T16:03:55.298Z,52.93
2022-11-24T16:06:26.060Z,58.37
2022-11-24T16:08:56.527Z,56.07
2022-11-24T16:11:29.894Z,51.93
2022-11-24T16:14:01.831Z,54.00
2022-11-24T16:16:32.291Z,58.97
2022-11-24T16:19:02.871Z,54.00
2022-11-24T16:21:33.535Z,58.83
2022-11-24T16:24:03.828Z,52.03
2022-11-24T16:26:36.834Z,59.67
2022-11-24T16:29:07.034Z,56.70
2022-11-24T16:31:37.951Z,55.90
2022-11-24T16:34:07.928Z,59.43
2022-11-24T16:36:38.284Z,55.43
2022-11-24T16:39:08.265Z,51.90
2022-11-24T16:41:41.500Z,57.63
2022-11-24T16:44:11.600Z,53.50
2022-11-24T16:46:42.039Z,54.67
2022-11-24T16:49:12.140Z,50.07
2022-11-24T16:51:42.584Z,53.90
2022-11-24T16:54:12.635Z,56.87
2022-11-24T16:56:45.839Z,58.53
2022-11-24T16:59:15.983Z,52.37
2022-11-24T17:01:50.583Z,58.67
2022-11-24T17:04:21.011Z,56.53
2022-11-24T17:06:51.558Z,54.70
2022-11-24T17:09:22.252Z,59.10
2022-11-24T17:11:55.476Z,61.80
2022-11-24T17:14:25.807Z,52.87
2022-11-24T17:16:56.688Z,54.83
2022-11-24T17:19:31.845Z,55.17
2022-11-24T17:22:04.383Z,56.13
2022-11-24T17:24:35.265Z,53.50
2022-11-24T17:27:11.091Z,53.93
2022-11-24T17:29:41.320Z,53.97
2022-11-24T17:32:12.102Z,50.33
2022-11-24T17:34:42.891Z,52.60
2022-11-24T17:37:13.387Z,46.70
2022-11-24T17:39:54.842Z,51.47
2022-11-24T17:42:37.384Z,54.73
2022-11-24T17:45:09.595Z,46.33
2022-11-24T17:47:40.110Z,45.87
2022-11-24T17:50:11.532Z,46.40
2022-11-24T17:52:41.948Z,48.20
2022-11-24T17:55:12.567Z,48.20
2022-11-24T17:57:46.164Z,48.40
2022-11-24T18:00:17.831Z,48.23
2022-11-24T18:02:48.626Z,51.23
2022-11-24T18:05:19.608Z,58.20
2022-11-24T18:07:50.218Z,92.90
2022-11-24T18:10:20.528Z,76.60
2022-11-24T18:12:53.907Z,46.50
2022-11-24T18:15:24.507Z,43.07
2022-11-24T18:17:55.410Z,50.07
2022-11-24T18:20:26.663Z,43.60
2022-11-24T18:23:05.474Z,48.17
2022-11-24T18:25:37.309Z,43.80
2022-11-24T18:28:10.576Z,44.97
2022-11-24T18:30:40.727Z,41.47
2022-11-24T18:33:11.631Z,44.37
2022-11-24T18:35:42.207Z,48.13
2022-11-24T18:38:13.454Z,50.10
2022-11-24T18:40:43.726Z,51.60
2022-11-24T18:43:16.886Z,47.37
2022-11-24T18:45:47.469Z,52.40
2022-11-24T18:48:18.400Z,51.37
2022-11-24T18:50:52.742Z,51.20
2022-11-24T18:53:25.084Z,48.73
2022-11-24T18:55:59.455Z,46.30
2022-11-24T18:58:34.441Z,47.03
2022-11-24T19:01:12.791Z,49.57
2022-11-24T19:03:48.808Z,48.87
2022-11-24T19:06:26.710Z,46.67
2022-11-24T19:08:58.476Z,47.13
2022-11-24T19:11:32.459Z,59.00
2022-11-24T19:14:06.770Z,46.57
2022-11-24T19:16:37.792Z,46.30
2022-11-24T19:19:09.088Z,50.83
2022-11-24T19:21:42.138Z,50.40
2022-11-24T19:24:13.618Z,48.27
2022-11-24T19:26:44.201Z,49.03
2022-11-24T19:29:17.814Z,48.70
2022-11-24T19:31:48.264Z,48.53
2022-11-24T19:34:19.656Z,53.23
2022-11-24T19:36:50.198Z,51.47
2022-11-24T19:39:21.158Z,47.17
2022-11-24T19:41:53.069Z,48.17
2022-11-24T19:44:26.365Z,47.83
2022-11-24T19:46:56.618Z,51.90
2022-11-24T19:49:27.337Z,49.30
2022-11-24T19:51:57.589Z,49.80
2022-11-24T19:54:28.271Z,51.97
2022-11-24T19:56:59.056Z,51.37
2022-11-24T19:59:32.725Z,50.10
2022-11-24T20:02:03.818Z,50.00
2022-11-24T20:04:38.319Z,52.13
2022-11-24T20:07:08.722Z,51.03
2022-11-24T20:09:39.675Z,46.57
2022-11-24T20:12:10.562Z,47.97
2022-11-24T20:14:43.814Z,49.57
2022-11-24T20:17:15.273Z,51.90
2022-11-24T20:19:48.044Z,53.57
2022-11-24T20:22:18.134Z,53.57
2022-11-24T20:24:48.498Z,53.23
2022-11-24T20:27:18.499Z,50.87
2022-11-24T20:29:51.478Z,83.87
2022-11-24T20:32:24.174Z,70.33
2022-11-24T20:34:54.498Z,52.13
2022-11-24T20:37:24.689Z,53.13
2022-11-24T20:39:55.024Z,48.80
2022-11-24T20:42:25.200Z,55.87
2022-11-24T20:45:00.774Z,50.97
2022-11-24T20:47:31.114Z,59.27
2022-11-24T20:50:01.545Z,58.53
2022-11-24T20:52:31.785Z,58.20
2022-11-24T20:55:03.996Z,54.50
2022-11-24T20:57:55.965Z,50.60
2022-11-24T21:00:46.767Z,49.13
2022-11-24T21:03:20.073Z,58.73
2022-11-24T21:05:56.847Z,55.33
2022-11-24T21:08:26.978Z,186.80
2022-11-24T21:10:58.719Z,67.83
2022-11-24T21:13:31.959Z,236.20
2022-11-24T21:16:14.401Z,388.73
2022-11-24T21:18:44.945Z,262.53
2022-11-24T21:21:16.319Z,130.13
2022-11-24T21:23:47.188Z,508.77
2022-11-24T21:26:19.199Z,59.73
2022-11-24T21:28:50.309Z,172.43
2022-11-24T21:31:24.111Z,64.00
2022-11-24T21:33:56.137Z,73.30
2022-11-24T21:36:28.722Z,47.77
2022-11-24T21:39:00.500Z,79.93
2022-11-24T21:41:34.023Z,49.47
2022-11-24T21:44:04.236Z,124.87
2022-11-24T21:46:43.617Z,194.23
2022-11-24T21:49:15.362Z,136.17
2022-11-24T21:51:45.741Z,274.63
2022-11-24T21:54:15.708Z,202.17
2022-11-24T21:56:46.025Z,198.87
2022-11-24T21:59:15.937Z,261.67
2022-11-24T22:01:48.888Z,218.93
2022-11-24T22:04:18.956Z,244.63
2022-11-24T22:06:49.292Z,224.03
2022-11-24T22:09:21.463Z,221.97
2022-11-24T22:11:52.621Z,274.97
2022-11-24T22:14:22.562Z,162.73
2022-11-24T22:16:55.600Z,270.27
2022-11-24T22:19:25.951Z,103.03
2022-11-24T22:21:56.656Z,147.30
2022-11-24T22:24:27.446Z,148.93
2022-11-24T22:26:58.166Z,90.87
2022-11-24T22:29:28.458Z,101.23
2022-11-24T22:32:01.649Z,65.23
2022-11-24T22:34:32.475Z,118.20
2022-11-24T22:37:03.250Z,71.97
2022-11-24T22:39:33.590Z,50.80
2022-11-24T22:42:04.206Z,54.33
2022-11-24T22:44:34.698Z,53.37
2022-11-24T22:47:08.151Z,46.77
2022-11-24T22:49:38.714Z,43.30
2022-11-24T22:52:09.358Z,47.67
2022-11-24T22:54:39.612Z,54.33
2022-11-24T22:57:10.129Z,43.57
2022-11-24T22:59:40.329Z,50.27
2022-11-24T23:02:13.484Z,50.47
2022-11-24T23:04:43.811Z,55.33
2022-11-24T23:07:14.165Z,53.67
2022-11-24T23:09:44.185Z,55.17
2022-11-24T23:12:14.523Z,64.73
2022-11-24T23:14:44.464Z,68.53
2022-11-24T23:17:17.374Z,60.50
2022-11-24T23:19:47.555Z,74.73
2022-11-24T23:22:17.893Z,69.47
2022-11-24T23:24:47.828Z,65.90
2022-11-24T23:27:18.087Z,70.50
2022-11-24T23:29:48.006Z,66.93
2022-11-24T23:32:21.089Z,78.20
2022-11-24T23:34:51.096Z,75.27
2022-11-24T23:37:26.451Z,79.10
2022-11-24T23:40:04.393Z,76.87
2022-11-24T23:42:34.674Z,84.00
2022-11-24T23:45:05.844Z,63.40
2022-11-24T23:47:38.763Z,59.90
2022-11-24T23:50:10.588Z,52.70
2022-11-24T23:52:40.902Z,67.93
2022-11-24T23:55:11.624Z,62.90
2022-11-24T23:57:41.914Z,60.70
